sensor_id;sensor_type;location;lat;lon;timestamp;P1;durP1;ratioP1;P2;durP2;ratioP2
24381;SDS011;12502;50.678;7.172;2022-11-20T00:00:20;34.85;;;19.50;;
24381;SDS011;12502;50.678;7.172;2022-11-20T00:05:21;34.78;;;19.05;;
24381;SDS011;12502;50.678;7.172;2022-11-20T00:10:23;33.92;;;17.85;;
24381;SDS011;12502;50.678;7.172;2022-11-20T00:15:25;32.78;;;17.80;;
24381;SDS011;12502;50.678;7.172;2022-11-20T00:20:26;29.80;;;17.35;;
24381;SDS011;12502;50.678;7.172;2022-11-20T00:25:28;31.70;;;18.35;;
24381;SDS011;12502;50.678;7.172;2022-11-20T00:30:30;31.55;;;17.40;;
24381;SDS011;12502;50.678;7.172;2022-11-20T00:35:31;30.35;;;16.25;;
24381;SDS011;12502;50.678;7.172;2022-11-20T00:40:33;32.97;;;19.42;;
24381;SDS011;12502;50.678;7.172;2022-11-20T00:45:35;32.88;;;17.70;;
24381;SDS011;12502;50.678;7.172;2022-11-20T00:50:36;34.42;;;19.23;;
24381;SDS011;12502;50.678;7.172;2022-11-20T00:55:38;33.78;;;17.95;;
24381;SDS011;12502;50.678;7.172;2022-11-20T01:00:39;33.95;;;19.55;;
24381;SDS011;12502;50.678;7.172;2022-11-20T01:05:41;31.60;;;18.48;;
24381;SDS011;12502;50.678;7.172;2022-11-20T01:10:43;30.20;;;16.30;;
24381;SDS011;12502;50.678;7.172;2022-11-20T01:15:45;32.00;;;17.95;;
24381;SDS011;12502;50.678;7.172;2022-11-20T01:20:46;31.75;;;17.70;;
24381;SDS011;12502;50.678;7.172;2022-11-20T01:25:48;31.60;;;17.27;;
24381;SDS011;12502;50.678;7.172;2022-11-20T01:30:50;32.40;;;19.02;;
24381;SDS011;12502;50.678;7.172;2022-11-20T01:35:52;32.78;;;19.05;;
24381;SDS011;12502;50.678;7.172;2022-11-20T01:40:54;30.70;;;18.05;;
24381;SDS011;12502;50.678;7.172;2022-11-20T01:51:33;30.40;;;18.02;;
24381;SDS011;12502;50.678;7.172;2022-11-20T01:56:51;31.88;;;18.85;;
24381;SDS011;12502;50.678;7.172;2022-11-20T02:01:58;32.97;;;18.13;;
24381;SDS011;12502;50.678;7.172;2022-11-20T02:07:00;33.90;;;19.10;;
24381;SDS011;12502;50.678;7.172;2022-11-20T02:12:03;31.83;;;18.75;;
24381;SDS011;12502;50.678;7.172;2022-11-20T02:17:05;33.85;;;19.20;;
24381;SDS011;12502;50.678;7.172;2022-11-20T02:27:51;35.42;;;19.75;;
24381;SDS011;12502;50.678;7.172;2022-11-20T02:32:53;36.55;;;19.90;;
24381;SDS011;12502;50.678;7.172;2022-11-20T02:37:57;35.42;;;19.75;;
24381;SDS011;12502;50.678;7.172;2022-11-20T02:43:02;37.08;;;19.90;;
24381;SDS011;12502;50.678;7.172;2022-11-20T02:48:03;31.98;;;19.30;;
24381;SDS011;12502;50.678;7.172;2022-11-20T02:53:07;34.70;;;19.65;;
24381;SDS011;12502;50.678;7.172;2022-11-20T02:58:09;36.67;;;20.83;;
24381;SDS011;12502;50.678;7.172;2022-11-20T03:03:11;34.78;;;19.80;;
24381;SDS011;12502;50.678;7.172;2022-11-20T03:08:12;34.22;;;18.90;;
24381;SDS011;12502;50.678;7.172;2022-11-20T03:13:14;35.33;;;20.52;;
24381;SDS011;12502;50.678;7.172;2022-11-20T03:18:15;34.85;;;19.98;;
24381;SDS011;12502;50.678;7.172;2022-11-20T03:23:17;32.00;;;19.25;;
24381;SDS011;12502;50.678;7.172;2022-11-20T03:28:19;34.83;;;18.60;;
24381;SDS011;12502;50.678;7.172;2022-11-20T03:33:21;34.22;;;19.95;;
24381;SDS011;12502;50.678;7.172;2022-11-20T03:38:22;33.15;;;19.42;;
24381;SDS011;12502;50.678;7.172;2022-11-20T03:43:24;35.67;;;19.73;;
24381;SDS011;12502;50.678;7.172;2022-11-20T03:48:26;35.60;;;19.60;;
24381;SDS011;12502;50.678;7.172;2022-11-20T03:53:28;38.55;;;19.48;;
24381;SDS011;12502;50.678;7.172;2022-11-20T03:58:29;34.42;;;19.65;;
24381;SDS011;12502;50.678;7.172;2022-11-20T04:03:31;38.60;;;20.38;;
24381;SDS011;12502;50.678;7.172;2022-11-20T04:08:33;34.60;;;19.60;;
24381;SDS011;12502;50.678;7.172;2022-11-20T04:13:35;37.83;;;20.13;;
24381;SDS011;12502;50.678;7.172;2022-11-20T04:18:38;37.72;;;20.05;;
24381;SDS011;12502;50.678;7.172;2022-11-20T04:23:40;40.72;;;20.77;;
24381;SDS011;12502;50.678;7.172;2022-11-20T04:28:41;36.25;;;19.10;;
24381;SDS011;12502;50.678;7.172;2022-11-20T04:33:43;36.78;;;21.30;;
24381;SDS011;12502;50.678;7.172;2022-11-20T04:38:45;40.00;;;21.25;;
24381;SDS011;12502;50.678;7.172;2022-11-20T04:43:55;34.42;;;20.52;;
24381;SDS011;12502;50.678;7.172;2022-11-20T04:49:01;37.25;;;20.83;;
24381;SDS011;12502;50.678;7.172;2022-11-20T04:54:02;36.75;;;20.95;;
24381;SDS011;12502;50.678;7.172;2022-11-20T04:59:04;38.08;;;20.15;;
24381;SDS011;12502;50.678;7.172;2022-11-20T05:04:06;37.40;;;20.45;;
24381;SDS011;12502;50.678;7.172;2022-11-20T05:09:08;40.75;;;21.75;;
24381;SDS011;12502;50.678;7.172;2022-11-20T05:14:10;37.97;;;20.92;;
24381;SDS011;12502;50.678;7.172;2022-11-20T05:19:11;39.15;;;20.50;;
24381;SDS011;12502;50.678;7.172;2022-11-20T05:24:13;37.13;;;20.40;;
24381;SDS011;12502;50.678;7.172;2022-11-20T05:29:15;42.08;;;21.85;;
24381;SDS011;12502;50.678;7.172;2022-11-20T05:34:16;41.85;;;21.08;;
24381;SDS011;12502;50.678;7.172;2022-11-20T05:39:18;42.63;;;22.98;;
24381;SDS011;12502;50.678;7.172;2022-11-20T05:44:20;38.95;;;21.55;;
24381;SDS011;12502;50.678;7.172;2022-11-20T05:49:22;41.40;;;21.42;;
24381;SDS011;12502;50.678;7.172;2022-11-20T05:54:24;39.28;;;21.23;;
24381;SDS011;12502;50.678;7.172;2022-11-20T05:59:26;40.10;;;22.50;;
24381;SDS011;12502;50.678;7.172;2022-11-20T06:04:28;39.83;;;22.02;;
24381;SDS011;12502;50.678;7.172;2022-11-20T06:09:30;45.08;;;23.23;;
24381;SDS011;12502;50.678;7.172;2022-11-20T06:14:32;44.15;;;24.20;;
24381;SDS011;12502;50.678;7.172;2022-11-20T06:19:34;43.92;;;23.85;;
24381;SDS011;12502;50.678;7.172;2022-11-20T06:24:36;45.67;;;23.65;;
24381;SDS011;12502;50.678;7.172;2022-11-20T06:29:37;48.88;;;24.20;;
24381;SDS011;12502;50.678;7.172;2022-11-20T06:34:39;43.60;;;23.08;;
24381;SDS011;12502;50.678;7.172;2022-11-20T06:39:40;44.30;;;23.27;;
24381;SDS011;12502;50.678;7.172;2022-11-20T06:44:42;43.25;;;23.48;;
24381;SDS011;12502;50.678;7.172;2022-11-20T06:49:44;44.47;;;22.88;;
24381;SDS011;12502;50.678;7.172;2022-11-20T06:54:46;44.40;;;23.30;;
24381;SDS011;12502;50.678;7.172;2022-11-20T06:59:47;47.08;;;22.88;;
24381;SDS011;12502;50.678;7.172;2022-11-20T07:04:50;42.35;;;22.92;;
24381;SDS011;12502;50.678;7.172;2022-11-20T07:09:51;49.28;;;24.55;;
24381;SDS011;12502;50.678;7.172;2022-11-20T07:14:53;46.00;;;22.80;;
24381;SDS011;12502;50.678;7.172;2022-11-20T07:19:55;47.25;;;23.75;;
24381;SDS011;12502;50.678;7.172;2022-11-20T07:24:57;44.08;;;23.45;;
24381;SDS011;12502;50.678;7.172;2022-11-20T07:29:58;45.38;;;23.65;;
24381;SDS011;12502;50.678;7.172;2022-11-20T07:35:00;47.13;;;23.05;;
24381;SDS011;12502;50.678;7.172;2022-11-20T07:40:02;47.97;;;24.10;;
24381;SDS011;12502;50.678;7.172;2022-11-20T07:45:04;45.50;;;22.52;;
24381;SDS011;12502;50.678;7.172;2022-11-20T07:50:06;41.60;;;22.10;;
24381;SDS011;12502;50.678;7.172;2022-11-20T07:55:09;42.92;;;22.67;;
24381;SDS011;12502;50.678;7.172;2022-11-20T08:00:11;39.85;;;21.27;;
24381;SDS011;12502;50.678;7.172;2022-11-20T08:05:13;36.35;;;20.45;;
24381;SDS011;12502;50.678;7.172;2022-11-20T08:10:15;39.67;;;20.83;;
24381;SDS011;12502;50.678;7.172;2022-11-20T08:15:17;38.30;;;19.95;;
24381;SDS011;12502;50.678;7.172;2022-11-20T08:20:19;40.03;;;21.48;;
24381;SDS011;12502;50.678;7.172;2022-11-20T08:25:21;34.83;;;19.83;;
24381;SDS011;12502;50.678;7.172;2022-11-20T08:30:22;38.10;;;21.23;;
24381;SDS011;12502;50.678;7.172;2022-11-20T08:35:25;42.45;;;21.88;;
24381;SDS011;12502;50.678;7.172;2022-11-20T08:40:26;38.50;;;21.00;;
24381;SDS011;12502;50.678;7.172;2022-11-20T08:45:28;39.97;;;21.13;;
24381;SDS011;12502;50.678;7.172;2022-11-20T08:50:34;41.63;;;22.90;;
24381;SDS011;12502;50.678;7.172;2022-11-20T08:55:36;45.03;;;22.70;;
24381;SDS011;12502;50.678;7.172;2022-11-20T09:00:37;39.80;;;20.80;;
24381;SDS011;12502;50.678;7.172;2022-11-20T09:05:39;43.38;;;22.65;;
24381;SDS011;12502;50.678;7.172;2022-11-20T09:10:41;39.38;;;20.90;;
24381;SDS011;12502;50.678;7.172;2022-11-20T09:15:43;44.53;;;23.45;;
24381;SDS011;12502;50.678;7.172;2022-11-20T09:20:44;45.63;;;22.38;;
24381;SDS011;12502;50.678;7.172;2022-11-20T09:25:46;42.95;;;22.60;;
24381;SDS011;12502;50.678;7.172;2022-11-20T09:30:48;47.70;;;23.90;;
24381;SDS011;12502;50.678;7.172;2022-11-20T09:35:50;45.05;;;22.73;;
24381;SDS011;12502;50.678;7.172;2022-11-20T09:41:03;41.72;;;22.10;;
24381;SDS011;12502;50.678;7.172;2022-11-20T10:02:24;41.65;;;21.95;;
24381;SDS011;12502;50.678;7.172;2022-11-20T10:07:42;35.03;;;19.63;;
24381;SDS011;12502;50.678;7.172;2022-11-20T10:18:21;28.38;;;15.23;;
24381;SDS011;12502;50.678;7.172;2022-11-20T10:23:45;28.67;;;16.17;;
24381;SDS011;12502;50.678;7.172;2022-11-20T10:29:12;32.90;;;17.13;;
24381;SDS011;12502;50.678;7.172;2022-11-20T10:34:39;35.63;;;20.33;;
24381;SDS011;12502;50.678;7.172;2022-11-20T10:50:26;31.92;;;17.98;;
24381;SDS011;12502;50.678;7.172;2022-11-20T10:55:39;33.72;;;19.08;;
24381;SDS011;12502;50.678;7.172;2022-11-20T11:00:48;38.80;;;20.85;;
24381;SDS011;12502;50.678;7.172;2022-11-20T11:05:50;34.42;;;19.58;;
24381;SDS011;12502;50.678;7.172;2022-11-20T11:11:26;32.78;;;18.35;;
24381;SDS011;12502;50.678;7.172;2022-11-20T11:16:31;34.67;;;18.58;;
24381;SDS011;12502;50.678;7.172;2022-11-20T11:21:32;33.00;;;18.48;;
24381;SDS011;12502;50.678;7.172;2022-11-20T11:26:34;32.25;;;18.48;;
24381;SDS011;12502;50.678;7.172;2022-11-20T11:31:40;30.83;;;17.02;;
24381;SDS011;12502;50.678;7.172;2022-11-20T11:37:01;28.90;;;15.77;;
24381;SDS011;12502;50.678;7.172;2022-11-20T11:42:07;31.40;;;17.48;;
24381;SDS011;12502;50.678;7.172;2022-11-20T11:52:26;36.08;;;18.73;;
24381;SDS011;12502;50.678;7.172;2022-11-20T12:08:02;31.92;;;18.55;;
24381;SDS011;12502;50.678;7.172;2022-11-20T12:18:43;30.38;;;16.90;;
24381;SDS011;12502;50.678;7.172;2022-11-20T13:06:46;28.10;;;16.90;;
24381;SDS011;12502;50.678;7.172;2022-11-20T13:22:26;26.45;;;15.82;;
24381;SDS011;12502;50.678;7.172;2022-11-20T13:27:49;29.05;;;16.60;;
24381;SDS011;12502;50.678;7.172;2022-11-20T13:32:52;26.33;;;16.67;;
24381;SDS011;12502;50.678;7.172;2022-11-20T13:38:00;28.95;;;17.13;;
24381;SDS011;12502;50.678;7.172;2022-11-20T13:43:18;26.33;;;16.02;;
24381;SDS011;12502;50.678;7.172;2022-11-20T13:48:32;28.10;;;17.05;;
24381;SDS011;12502;50.678;7.172;2022-11-20T13:53:52;29.08;;;17.42;;
24381;SDS011;12502;50.678;7.172;2022-11-20T13:59:28;29.70;;;17.10;;
24381;SDS011;12502;50.678;7.172;2022-11-20T14:04:50;25.45;;;15.63;;
24381;SDS011;12502;50.678;7.172;2022-11-20T14:09:54;23.67;;;14.35;;
24381;SDS011;12502;50.678;7.172;2022-11-20T14:20:01;26.35;;;15.45;;
24381;SDS011;12502;50.678;7.172;2022-11-20T14:25:17;28.67;;;15.25;;
24381;SDS011;12502;50.678;7.172;2022-11-20T14:30:29;24.92;;;14.90;;
24381;SDS011;12502;50.678;7.172;2022-11-20T14:35:47;22.20;;;13.73;;
24381;SDS011;12502;50.678;7.172;2022-11-20T14:40:51;21.98;;;13.00;;
24381;SDS011;12502;50.678;7.172;2022-11-20T14:45:55;22.17;;;14.00;;
24381;SDS011;12502;50.678;7.172;2022-11-20T14:51:05;22.52;;;13.50;;
24381;SDS011;12502;50.678;7.172;2022-11-20T14:56:09;21.75;;;13.25;;
24381;SDS011;12502;50.678;7.172;2022-11-20T15:01:12;23.48;;;14.40;;
24381;SDS011;12502;50.678;7.172;2022-11-20T15:06:24;25.73;;;14.85;;
24381;SDS011;12502;50.678;7.172;2022-11-20T15:11:29;25.13;;;15.07;;
24381;SDS011;12502;50.678;7.172;2022-11-20T15:16:34;21.50;;;13.23;;
24381;SDS011;12502;50.678;7.172;2022-11-20T15:21:36;19.60;;;12.45;;
24381;SDS011;12502;50.678;7.172;2022-11-20T15:26:38;20.13;;;13.38;;
24381;SDS011;12502;50.678;7.172;2022-11-20T15:31:41;25.15;;;13.52;;
24381;SDS011;12502;50.678;7.172;2022-11-20T15:36:44;19.48;;;11.68;;
24381;SDS011;12502;50.678;7.172;2022-11-20T15:41:46;26.00;;;13.20;;
24381;SDS011;12502;50.678;7.172;2022-11-20T15:46:48;23.23;;;13.98;;
24381;SDS011;12502;50.678;7.172;2022-11-20T15:51:50;26.00;;;15.65;;
24381;SDS011;12502;50.678;7.172;2022-11-20T15:56:53;25.85;;;14.52;;
24381;SDS011;12502;50.678;7.172;2022-11-20T16:02:13;32.33;;;18.30;;
24381;SDS011;12502;50.678;7.172;2022-11-20T16:07:19;29.25;;;17.17;;
24381;SDS011;12502;50.678;7.172;2022-11-20T16:12:21;31.05;;;16.45;;
24381;SDS011;12502;50.678;7.172;2022-11-20T16:17:42;24.70;;;15.60;;
24381;SDS011;12502;50.678;7.172;2022-11-20T16:22:43;27.58;;;15.95;;
24381;SDS011;12502;50.678;7.172;2022-11-20T16:27:45;23.65;;;15.73;;
24381;SDS011;12502;50.678;7.172;2022-11-20T16:32:47;26.15;;;16.92;;
24381;SDS011;12502;50.678;7.172;2022-11-20T16:37:49;29.58;;;18.67;;
24381;SDS011;12502;50.678;7.172;2022-11-20T16:42:50;31.55;;;18.45;;
24381;SDS011;12502;50.678;7.172;2022-11-20T16:47:52;28.73;;;19.05;;
24381;SDS011;12502;50.678;7.172;2022-11-20T16:52:54;26.25;;;14.60;;
24381;SDS011;12502;50.678;7.172;2022-11-20T16:57:56;21.38;;;12.50;;
24381;SDS011;12502;50.678;7.172;2022-11-20T17:02:58;21.20;;;13.05;;
24381;SDS011;12502;50.678;7.172;2022-11-20T17:07:59;19.65;;;11.55;;
24381;SDS011;12502;50.678;7.172;2022-11-20T17:13:02;17.00;;;10.88;;
24381;SDS011;12502;50.678;7.172;2022-11-20T17:18:03;15.88;;;10.10;;
24381;SDS011;12502;50.678;7.172;2022-11-20T17:23:05;13.07;;;9.18;;
24381;SDS011;12502;50.678;7.172;2022-11-20T17:28:07;14.45;;;11.20;;
24381;SDS011;12502;50.678;7.172;2022-11-20T17:33:08;14.95;;;10.10;;
24381;SDS011;12502;50.678;7.172;2022-11-20T17:38:10;11.65;;;8.38;;
24381;SDS011;12502;50.678;7.172;2022-11-20T17:43:12;14.05;;;9.50;;
24381;SDS011;12502;50.678;7.172;2022-11-20T17:48:14;13.48;;;8.95;;
24381;SDS011;12502;50.678;7.172;2022-11-20T17:53:15;15.30;;;9.82;;
24381;SDS011;12502;50.678;7.172;2022-11-20T17:58:17;18.88;;;10.70;;
24381;SDS011;12502;50.678;7.172;2022-11-20T18:03:19;18.05;;;10.57;;
24381;SDS011;12502;50.678;7.172;2022-11-20T18:08:20;13.50;;;9.38;;
24381;SDS011;12502;50.678;7.172;2022-11-20T18:13:22;11.65;;;8.80;;
24381;SDS011;12502;50.678;7.172;2022-11-20T18:18:48;17.38;;;8.82;;
24381;SDS011;12502;50.678;7.172;2022-11-20T18:23:50;11.10;;;7.55;;
24381;SDS011;12502;50.678;7.172;2022-11-20T18:28:52;4.95;;;3.80;;
24381;SDS011;12502;50.678;7.172;2022-11-20T18:33:54;4.25;;;3.35;;
24381;SDS011;12502;50.678;7.172;2022-11-20T18:38:58;3.42;;;2.45;;
24381;SDS011;12502;50.678;7.172;2022-11-20T18:44:02;2.65;;;1.60;;
24381;SDS011;12502;50.678;7.172;2022-11-20T18:49:25;1.77;;;1.30;;
24381;SDS011;12502;50.678;7.172;2022-11-20T18:54:26;2.72;;;1.90;;
24381;SDS011;12502;50.678;7.172;2022-11-20T18:59:28;2.30;;;2.13;;
24381;SDS011;12502;50.678;7.172;2022-11-20T19:04:31;3.97;;;2.22;;
24381;SDS011;12502;50.678;7.172;2022-11-20T19:09:34;4.22;;;2.17;;
24381;SDS011;12502;50.678;7.172;2022-11-20T19:14:35;6.88;;;2.60;;
24381;SDS011;12502;50.678;7.172;2022-11-20T19:19:37;2.80;;;2.50;;
24381;SDS011;12502;50.678;7.172;2022-11-20T19:24:39;5.97;;;3.10;;
24381;SDS011;12502;50.678;7.172;2022-11-20T19:29:41;7.43;;;3.22;;
24381;SDS011;12502;50.678;7.172;2022-11-20T19:34:43;15.60;;;3.97;;
24381;SDS011;12502;50.678;7.172;2022-11-20T19:39:45;12.27;;;4.47;;
24381;SDS011;12502;50.678;7.172;2022-11-20T19:44:46;13.18;;;5.35;;
24381;SDS011;12502;50.678;7.172;2022-11-20T19:49:49;13.70;;;4.90;;
24381;SDS011;12502;50.678;7.172;2022-11-20T19:54:50;9.88;;;4.70;;
24381;SDS011;12502;50.678;7.172;2022-11-20T19:59:52;16.05;;;5.35;;
24381;SDS011;12502;50.678;7.172;2022-11-20T20:04:55;10.93;;;5.70;;
24381;SDS011;12502;50.678;7.172;2022-11-20T20:09:57;12.52;;;6.00;;
24381;SDS011;12502;50.678;7.172;2022-11-20T20:14:58;18.40;;;5.80;;
24381;SDS011;12502;50.678;7.172;2022-11-20T20:20:00;18.48;;;6.70;;
24381;SDS011;12502;50.678;7.172;2022-11-20T20:25:02;19.35;;;6.20;;
24381;SDS011;12502;50.678;7.172;2022-11-20T20:30:04;17.95;;;5.53;;
24381;SDS011;12502;50.678;7.172;2022-11-20T20:35:07;10.07;;;3.97;;
24381;SDS011;12502;50.678;7.172;2022-11-20T20:40:09;12.65;;;4.70;;
24381;SDS011;12502;50.678;7.172;2022-11-20T20:45:15;15.80;;;4.07;;
24381;SDS011;12502;50.678;7.172;2022-11-20T20:50:17;13.48;;;3.97;;
24381;SDS011;12502;50.678;7.172;2022-11-20T20:55:19;15.10;;;4.50;;
24381;SDS011;12502;50.678;7.172;2022-11-20T21:00:20;12.93;;;4.25;;
24381;SDS011;12502;50.678;7.172;2022-11-20T21:05:22;14.85;;;4.35;;
24381;SDS011;12502;50.678;7.172;2022-11-20T21:10:24;11.80;;;3.90;;
24381;SDS011;12502;50.678;7.172;2022-11-20T21:15:25;16.17;;;4.50;;
24381;SDS011;12502;50.678;7.172;2022-11-20T21:20:27;11.07;;;2.95;;
24381;SDS011;12502;50.678;7.172;2022-11-20T21:25:48;17.48;;;3.92;;
24381;SDS011;12502;50.678;7.172;2022-11-20T21:30:49;15.32;;;3.67;;
24381;SDS011;12502;50.678;7.172;2022-11-20T21:35:51;16.90;;;3.47;;
24381;SDS011;12502;50.678;7.172;2022-11-20T21:40:55;16.42;;;3.72;;
24381;SDS011;12502;50.678;7.172;2022-11-20T21:46:01;14.00;;;3.15;;
24381;SDS011;12502;50.678;7.172;2022-11-20T21:51:08;14.48;;;3.30;;
24381;SDS011;12502;50.678;7.172;2022-11-20T22:01:24;11.93;;;3.10;;
24381;SDS011;12502;50.678;7.172;2022-11-20T22:06:32;15.60;;;3.22;;
24381;SDS011;12502;50.678;7.172;2022-11-20T22:11:34;11.32;;;3.80;;
24381;SDS011;12502;50.678;7.172;2022-11-20T22:16:36;15.52;;;3.30;;
24381;SDS011;12502;50.678;7.172;2022-11-20T22:21:38;9.55;;;3.20;;
24381;SDS011;12502;50.678;7.172;2022-11-20T22:26:42;7.80;;;2.87;;
24381;SDS011;12502;50.678;7.172;2022-11-20T22:31:44;13.23;;;3.75;;
24381;SDS011;12502;50.678;7.172;2022-11-20T22:36:46;16.02;;;3.60;;
24381;SDS011;12502;50.678;7.172;2022-11-20T22:41:47;19.08;;;4.03;;
24381;SDS011;12502;50.678;7.172;2022-11-20T22:46:49;11.50;;;3.38;;
24381;SDS011;12502;50.678;7.172;2022-11-20T22:51:51;18.58;;;4.13;;
24381;SDS011;12502;50.678;7.172;2022-11-20T22:56:52;19.55;;;4.38;;
24381;SDS011;12502;50.678;7.172;2022-11-20T23:01:54;12.55;;;4.15;;
24381;SDS011;12502;50.678;7.172;2022-11-20T23:06:56;16.02;;;4.15;;
24381;SDS011;12502;50.678;7.172;2022-11-20T23:11:57;12.32;;;4.70;;
24381;SDS011;12502;50.678;7.172;2022-11-20T23:16:59;19.38;;;4.47;;
24381;SDS011;12502;50.678;7.172;2022-11-20T23:22:02;13.05;;;4.18;;
24381;SDS011;12502;50.678;7.172;2022-11-20T23:27:04;12.60;;;4.10;;
24381;SDS011;12502;50.678;7.172;2022-11-20T23:32:05;19.20;;;4.60;;
24381;SDS011;12502;50.678;7.172;2022-11-20T23:37:07;10.93;;;4.32;;
24381;SDS011;12502;50.678;7.172;2022-11-20T23:42:08;17.00;;;4.63;;
24381;SDS011;12502;50.678;7.172;2022-11-20T23:47:10;20.35;;;5.07;;
24381;SDS011;12502;50.678;7.172;2022-11-20T23:52:12;21.95;;;4.80;;
24381;SDS011;12502;50.678;7.172;2022-11-20T23:57:13;12.98;;;4.20;;
